Terminal Aerodrome Forecast
Issued by NWS

Home | Current Version | Previous Version | Graphics & Text | Print | Product List | Glossary On
Versions: 1 2 3 4 5 6 7 8 9 10 11 12 13 14 15 16 17 18 19
000
FTUS43 KMPX 221100
TAFAXN
TAF
KAXN 221120Z 2212/2312 33004KT P6SM SCT250
     FM221800 07006KT P6SM BKN250
     FM230000 12008KT P6SM BKN200
     FM230700 13012KT P6SM BKN070 OVC150=

USA.gov is the U.S. government's official web portal to all federal, state and local government web resources and services.